sensor_id;sensor_type;location;lat;lon;timestamp;pressure;altitude;pressure_sealevel;temperature;humidity
44825;BME280;30542;47.928;2.138;2023-06-04T00:02:53;100341.16;;;24.58;36.88
44825;BME280;30542;47.928;2.138;2023-06-04T00:07:54;100344.94;;;24.57;36.88
44825;BME280;30542;47.928;2.138;2023-06-04T00:12:54;100338.25;;;24.54;36.80
44825;BME280;30542;47.928;2.138;2023-06-04T00:17:54;100344.41;;;24.54;36.76
44825;BME280;30542;47.928;2.138;2023-06-04T00:22:56;100336.97;;;24.51;36.67
44825;BME280;30542;47.928;2.138;2023-06-04T00:27:57;100338.53;;;24.52;36.58
44825;BME280;30542;47.928;2.138;2023-06-04T00:32:57;100334.25;;;24.51;36.66
44825;BME280;30542;47.928;2.138;2023-06-04T00:37:57;100338.81;;;24.51;36.60
44825;BME280;30542;47.928;2.138;2023-06-04T00:42:57;100332.16;;;24.48;36.49
44825;BME280;30542;47.928;2.138;2023-06-04T00:47:58;100335.16;;;24.47;36.40
44825;BME280;30542;47.928;2.138;2023-06-04T00:52:58;100334.31;;;24.46;36.24
44825;BME280;30542;47.928;2.138;2023-06-04T00:57:59;100333.03;;;24.44;36.39
44825;BME280;30542;47.928;2.138;2023-06-04T01:03:03;100335.19;;;24.42;36.24
44825;BME280;30542;47.928;2.138;2023-06-04T01:08:06;100335.50;;;24.40;36.33
44825;BME280;30542;47.928;2.138;2023-06-04T01:13:08;100328.53;;;24.39;36.00
44825;BME280;30542;47.928;2.138;2023-06-04T01:18:10;100333.34;;;24.37;36.13
44825;BME280;30542;47.928;2.138;2023-06-04T01:28:34;100329.88;;;24.37;36.28
44825;BME280;30542;47.928;2.138;2023-06-04T01:33:35;100331.25;;;24.34;36.23
44825;BME280;30542;47.928;2.138;2023-06-04T01:38:35;100326.97;;;24.33;36.21
44825;BME280;30542;47.928;2.138;2023-06-04T01:43:36;100322.47;;;24.28;36.31
44825;BME280;30542;47.928;2.138;2023-06-04T01:48:36;100327.53;;;24.30;36.02
44825;BME280;30542;47.928;2.138;2023-06-04T01:53:37;100327.53;;;24.30;36.29
44825;BME280;30542;47.928;2.138;2023-06-04T01:58:37;100318.19;;;24.27;36.25
44825;BME280;30542;47.928;2.138;2023-06-04T02:03:38;100325.44;;;24.27;36.24
44825;BME280;30542;47.928;2.138;2023-06-04T02:08:38;100322.25;;;24.25;36.17
44825;BME280;30542;47.928;2.138;2023-06-04T02:13:40;100332.22;;;24.24;36.54
44825;BME280;30542;47.928;2.138;2023-06-04T02:18:40;100329.81;;;24.23;36.25
44825;BME280;30542;47.928;2.138;2023-06-04T02:23:41;100331.72;;;24.22;36.25
44825;BME280;30542;47.928;2.138;2023-06-04T02:28:41;100332.00;;;24.21;36.09
44825;BME280;30542;47.928;2.138;2023-06-04T02:33:41;100331.19;;;24.20;36.06
44825;BME280;30542;47.928;2.138;2023-06-04T02:38:42;100327.19;;;24.18;35.95
44825;BME280;30542;47.928;2.138;2023-06-04T02:43:43;100332.44;;;24.28;36.05
44825;BME280;30542;47.928;2.138;2023-06-04T02:48:43;100324.28;;;24.33;35.86
44825;BME280;30542;47.928;2.138;2023-06-04T02:53:43;100327.63;;;24.25;35.78
44825;BME280;30542;47.928;2.138;2023-06-04T02:58:52;100337.38;;;24.21;35.95
44825;BME280;30542;47.928;2.138;2023-06-04T03:03:54;100336.34;;;24.17;36.08
44825;BME280;30542;47.928;2.138;2023-06-04T03:08:54;100327.25;;;24.13;35.58
44825;BME280;30542;47.928;2.138;2023-06-04T03:13:55;100316.59;;;24.08;36.06
44825;BME280;30542;47.928;2.138;2023-06-04T03:18:56;100326.25;;;24.09;36.01
44825;BME280;30542;47.928;2.138;2023-06-04T03:23:56;100325.75;;;24.06;36.15
44825;BME280;30542;47.928;2.138;2023-06-04T03:28:57;100326.84;;;24.05;36.10
44825;BME280;30542;47.928;2.138;2023-06-04T03:33:57;100325.53;;;24.03;35.85
44825;BME280;30542;47.928;2.138;2023-06-04T03:38:58;100326.91;;;24.00;35.97
44825;BME280;30542;47.928;2.138;2023-06-04T03:43:58;100322.63;;;23.99;36.25
44825;BME280;30542;47.928;2.138;2023-06-04T03:48:59;100327.50;;;23.97;35.92
44825;BME280;30542;47.928;2.138;2023-06-04T03:54:00;100328.88;;;23.95;36.29
44825;BME280;30542;47.928;2.138;2023-06-04T03:59:00;100328.06;;;23.94;36.21
44825;BME280;30542;47.928;2.138;2023-06-04T04:04:00;100327.06;;;23.90;36.20
44825;BME280;30542;47.928;2.138;2023-06-04T04:09:02;100321.66;;;23.90;36.33
44825;BME280;30542;47.928;2.138;2023-06-04T04:14:03;100328.16;;;23.89;36.23
44825;BME280;30542;47.928;2.138;2023-06-04T04:19:03;100324.63;;;23.89;36.11
44825;BME280;30542;47.928;2.138;2023-06-04T04:24:04;100331.41;;;23.86;36.02
44825;BME280;30542;47.928;2.138;2023-06-04T04:29:04;100323.91;;;23.83;36.13
44825;BME280;30542;47.928;2.138;2023-06-04T04:34:08;100322.00;;;23.84;35.89
44825;BME280;30542;47.928;2.138;2023-06-04T04:39:09;100323.13;;;23.83;36.12
44825;BME280;30542;47.928;2.138;2023-06-04T04:44:09;100328.00;;;23.80;36.04
44825;BME280;30542;47.928;2.138;2023-06-04T04:49:09;100327.16;;;23.80;36.39
44825;BME280;30542;47.928;2.138;2023-06-04T04:54:10;100346.00;;;23.80;36.24
44825;BME280;30542;47.928;2.138;2023-06-04T04:59:10;100348.69;;;23.80;36.20
44825;BME280;30542;47.928;2.138;2023-06-04T05:04:10;100347.41;;;23.77;36.39
44825;BME280;30542;47.928;2.138;2023-06-04T05:09:11;100351.97;;;23.77;36.30
44825;BME280;30542;47.928;2.138;2023-06-04T05:14:11;100347.66;;;23.76;36.52
44825;BME280;30542;47.928;2.138;2023-06-04T05:19:11;100347.66;;;23.76;36.59
44825;BME280;30542;47.928;2.138;2023-06-04T05:24:12;100354.13;;;23.75;36.51
44825;BME280;30542;47.928;2.138;2023-06-04T05:29:12;100350.66;;;23.74;36.62
44825;BME280;30542;47.928;2.138;2023-06-04T05:34:12;100349.84;;;23.74;36.53
44825;BME280;30542;47.928;2.138;2023-06-04T05:39:16;100361.41;;;23.74;36.61
44825;BME280;30542;47.928;2.138;2023-06-04T05:44:18;100362.22;;;23.75;36.64
44825;BME280;30542;47.928;2.138;2023-06-04T05:49:18;100361.41;;;23.74;36.71
44825;BME280;30542;47.928;2.138;2023-06-04T05:54:19;100373.75;;;23.75;36.73
44825;BME280;30542;47.928;2.138;2023-06-04T05:59:20;100369.19;;;23.76;36.92
44825;BME280;30542;47.928;2.138;2023-06-04T06:04:20;100374.56;;;23.76;36.95
44825;BME280;30542;47.928;2.138;2023-06-04T06:09:20;100378.06;;;23.76;36.93
44825;BME280;30542;47.928;2.138;2023-06-04T06:14:21;100376.19;;;23.77;36.90
44825;BME280;30542;47.928;2.138;2023-06-04T06:19:23;100390.44;;;23.77;37.16
44825;BME280;30542;47.928;2.138;2023-06-04T06:24:24;100397.69;;;23.77;36.96
44825;BME280;30542;47.928;2.138;2023-06-04T06:29:24;100401.69;;;23.79;37.00
44825;BME280;30542;47.928;2.138;2023-06-04T06:34:25;100404.66;;;23.78;37.18
44825;BME280;30542;47.928;2.138;2023-06-04T06:39:25;100408.72;;;23.75;37.20
44825;BME280;30542;47.928;2.138;2023-06-04T06:44:25;100396.66;;;23.73;37.13
44825;BME280;30542;47.928;2.138;2023-06-04T06:49:26;100400.16;;;23.73;37.15
44825;BME280;30542;47.928;2.138;2023-06-04T06:54:26;100397.00;;;23.66;37.28
44825;BME280;30542;47.928;2.138;2023-06-04T06:59:27;100401.94;;;23.54;37.53
44825;BME280;30542;47.928;2.138;2023-06-04T07:04:27;100405.19;;;23.51;37.89
44825;BME280;30542;47.928;2.138;2023-06-04T07:09:27;100401.53;;;23.42;37.77
44825;BME280;30542;47.928;2.138;2023-06-04T07:14:27;100408.31;;;23.39;37.86
44825;BME280;30542;47.928;2.138;2023-06-04T07:19:28;100411.00;;;23.34;37.84
44825;BME280;30542;47.928;2.138;2023-06-04T07:24:28;100403.47;;;23.36;38.19
44825;BME280;30542;47.928;2.138;2023-06-04T07:29:28;100406.13;;;23.41;38.42
44825;BME280;30542;47.928;2.138;2023-06-04T07:34:29;100407.72;;;23.42;38.70
44825;BME280;30542;47.928;2.138;2023-06-04T07:39:29;100411.72;;;23.45;38.67
44825;BME280;30542;47.928;2.138;2023-06-04T07:44:30;100416.00;;;23.46;38.76
44825;BME280;30542;47.928;2.138;2023-06-04T07:49:30;100407.69;;;23.47;38.73
44825;BME280;30542;47.928;2.138;2023-06-04T07:54:31;100413.56;;;23.49;38.93
44825;BME280;30542;47.928;2.138;2023-06-04T07:59:31;100411.91;;;23.53;39.20
44825;BME280;30542;47.928;2.138;2023-06-04T08:04:32;100410.25;;;23.57;39.00
44825;BME280;30542;47.928;2.138;2023-06-04T08:09:33;100408.28;;;23.63;39.42
44825;BME280;30542;47.928;2.138;2023-06-04T08:14:34;100399.69;;;23.66;39.19
44825;BME280;30542;47.928;2.138;2023-06-04T08:19:34;100403.97;;;23.67;39.19
44825;BME280;30542;47.928;2.138;2023-06-04T08:24:34;100404.22;;;23.71;39.25
44825;BME280;30542;47.928;2.138;2023-06-04T08:29:35;100401.97;;;23.78;39.39
44825;BME280;30542;47.928;2.138;2023-06-04T08:34:36;100405.41;;;23.84;39.23
44825;BME280;30542;47.928;2.138;2023-06-04T08:39:37;100415.28;;;23.88;39.40
44825;BME280;30542;47.928;2.138;2023-06-04T08:44:37;100416.91;;;23.89;39.76
44825;BME280;30542;47.928;2.138;2023-06-04T08:49:40;100418.84;;;23.84;39.32
44825;BME280;30542;47.928;2.138;2023-06-04T08:54:41;100429.84;;;23.87;39.16
44825;BME280;30542;47.928;2.138;2023-06-04T08:59:41;100423.81;;;23.95;38.93
44825;BME280;30542;47.928;2.138;2023-06-04T09:04:43;100428.13;;;23.96;38.77
44825;BME280;30542;47.928;2.138;2023-06-04T09:09:45;100423.31;;;23.93;37.94
44825;BME280;30542;47.928;2.138;2023-06-04T09:14:47;100434.59;;;23.95;37.53
44825;BME280;30542;47.928;2.138;2023-06-04T09:19:48;100425.72;;;23.95;37.18
44825;BME280;30542;47.928;2.138;2023-06-04T09:24:48;100424.13;;;23.94;37.04
44825;BME280;30542;47.928;2.138;2023-06-04T09:29:56;100416.56;;;23.96;36.81
44825;BME280;30542;47.928;2.138;2023-06-04T09:35:13;100429.09;;;24.05;37.00
44825;BME280;30542;47.928;2.138;2023-06-04T09:40:14;100433.25;;;24.17;36.86
44825;BME280;30542;47.928;2.138;2023-06-04T09:45:32;100427.09;;;24.35;36.53
44825;BME280;30542;47.928;2.138;2023-06-04T09:50:33;100435.25;;;24.49;36.50
44825;BME280;30542;47.928;2.138;2023-06-04T09:55:35;100429.53;;;24.55;36.04
44825;BME280;30542;47.928;2.138;2023-06-04T10:00:36;100433.72;;;24.62;35.89
44825;BME280;30542;47.928;2.138;2023-06-04T10:05:36;100428.25;;;24.67;35.66
44825;BME280;30542;47.928;2.138;2023-06-04T10:10:37;100422.28;;;24.70;35.58
44825;BME280;30542;47.928;2.138;2023-06-04T10:15:38;100435.19;;;24.73;35.49
44825;BME280;30542;47.928;2.138;2023-06-04T10:20:40;100440.00;;;24.76;35.43
44825;BME280;30542;47.928;2.138;2023-06-04T10:25:40;100434.00;;;24.79;35.42
44825;BME280;30542;47.928;2.138;2023-06-04T10:30:41;100431.84;;;24.81;35.23
44825;BME280;30542;47.928;2.138;2023-06-04T10:35:41;100441.19;;;24.84;35.18
44825;BME280;30542;47.928;2.138;2023-06-04T10:40:43;100437.22;;;24.81;34.99
44825;BME280;30542;47.928;2.138;2023-06-04T10:45:44;100435.53;;;24.85;34.78
44825;BME280;30542;47.928;2.138;2023-06-04T10:50:52;100447.38;;;24.84;34.62
44825;BME280;30542;47.928;2.138;2023-06-04T10:55:53;100419.31;;;24.71;34.34
44825;BME280;30542;47.928;2.138;2023-06-04T11:00:53;100443.63;;;24.85;34.47
44825;BME280;30542;47.928;2.138;2023-06-04T11:05:53;100439.03;;;24.86;34.80
44825;BME280;30542;47.928;2.138;2023-06-04T11:10:54;100417.50;;;24.67;35.16
44825;BME280;30542;47.928;2.138;2023-06-04T11:15:54;100438.22;;;24.85;35.14
44825;BME280;30542;47.928;2.138;2023-06-04T11:21:00;100442.81;;;24.85;34.96
44825;BME280;30542;47.928;2.138;2023-06-04T11:26:01;100444.41;;;24.86;35.08
44825;BME280;30542;47.928;2.138;2023-06-04T11:31:02;100432.53;;;24.87;34.68
44825;BME280;30542;47.928;2.138;2023-06-04T11:36:03;100434.94;;;24.88;34.55
44825;BME280;30542;47.928;2.138;2023-06-04T11:41:04;100436.56;;;24.89;34.63
44825;BME280;30542;47.928;2.138;2023-06-04T11:46:06;100438.44;;;24.89;34.48
44825;BME280;30542;47.928;2.138;2023-06-04T11:51:07;100440.84;;;24.90;34.54
44825;BME280;30542;47.928;2.138;2023-06-04T11:56:11;100421.47;;;24.88;34.54
44825;BME280;30542;47.928;2.138;2023-06-04T12:01:12;100423.09;;;24.89;34.40
44825;BME280;30542;47.928;2.138;2023-06-04T12:06:16;100421.97;;;24.90;34.39
44825;BME280;30542;47.928;2.138;2023-06-04T12:11:31;100413.91;;;24.90;34.43
44825;BME280;30542;47.928;2.138;2023-06-04T12:16:32;100414.69;;;24.91;34.27
44825;BME280;30542;47.928;2.138;2023-06-04T12:21:33;100406.91;;;24.89;34.28
44825;BME280;30542;47.928;2.138;2023-06-04T12:26:34;100406.91;;;24.89;34.35
44825;BME280;30542;47.928;2.138;2023-06-04T12:31:44;100406.91;;;24.89;34.19
44825;BME280;30542;47.928;2.138;2023-06-04T12:36:45;100399.31;;;24.91;34.13
44825;BME280;30542;47.928;2.138;2023-06-04T12:41:46;100405.81;;;24.90;34.05
44825;BME280;30542;47.928;2.138;2023-06-04T12:46:47;100392.81;;;24.92;33.80
44825;BME280;30542;47.928;2.138;2023-06-04T12:51:47;100386.94;;;24.90;33.88
44825;BME280;30542;47.928;2.138;2023-06-04T12:56:48;100383.94;;;24.92;33.87
44825;BME280;30542;47.928;2.138;2023-06-04T13:01:49;100380.75;;;24.90;33.66
44825;BME280;30542;47.928;2.138;2023-06-04T13:06:50;100390.44;;;24.91;33.66
44825;BME280;30542;47.928;2.138;2023-06-04T13:11:52;100389.06;;;24.93;33.79
44825;BME280;30542;47.928;2.138;2023-06-04T13:16:52;100393.34;;;24.94;33.68
44825;BME280;30542;47.928;2.138;2023-06-04T13:21:53;100385.25;;;24.94;33.83
44825;BME280;30542;47.928;2.138;2023-06-04T13:26:53;100379.88;;;24.94;33.76
44825;BME280;30542;47.928;2.138;2023-06-04T13:31:54;100382.00;;;24.97;33.91
44825;BME280;30542;47.928;2.138;2023-06-04T13:36:55;100376.28;;;24.99;33.94
44825;BME280;30542;47.928;2.138;2023-06-04T13:41:55;100379.78;;;24.99;34.16
44825;BME280;30542;47.928;2.138;2023-06-04T13:46:58;100377.59;;;25.01;34.13
44825;BME280;30542;47.928;2.138;2023-06-04T13:51:59;100377.88;;;25.00;34.10
44825;BME280;30542;47.928;2.138;2023-06-04T13:57:03;100379.00;;;24.99;34.08
44825;BME280;30542;47.928;2.138;2023-06-04T14:02:06;100377.88;;;25.00;33.79
44825;BME280;30542;47.928;2.138;2023-06-04T14:07:07;100379.19;;;25.02;33.84
44825;BME280;30542;47.928;2.138;2023-06-04T14:12:08;100365.72;;;25.02;33.76
44825;BME280;30542;47.928;2.138;2023-06-04T14:17:08;100368.91;;;25.04;33.63
44825;BME280;30542;47.928;2.138;2023-06-04T14:22:10;100359.03;;;25.00;33.45
44825;BME280;30542;47.928;2.138;2023-06-04T14:27:10;100356.75;;;25.07;33.52
44825;BME280;30542;47.928;2.138;2023-06-04T14:32:11;100352.16;;;25.08;33.55
44825;BME280;30542;47.928;2.138;2023-06-04T14:37:11;100354.84;;;25.08;33.46
44825;BME280;30542;47.928;2.138;2023-06-04T14:42:11;100344.06;;;25.08;33.47
44825;BME280;30542;47.928;2.138;2023-06-04T14:47:13;100348.91;;;25.11;33.14
44825;BME280;30542;47.928;2.138;2023-06-04T14:52:14;100351.59;;;25.11;33.02
44825;BME280;30542;47.928;2.138;2023-06-04T14:57:14;100347.56;;;25.08;32.93
44825;BME280;30542;47.928;2.138;2023-06-04T15:02:16;100340.47;;;24.98;33.44
44825;BME280;30542;47.928;2.138;2023-06-04T15:07:19;100342.25;;;24.89;33.74
44825;BME280;30542;47.928;2.138;2023-06-04T15:12:19;100347.69;;;24.84;34.09
44825;BME280;30542;47.928;2.138;2023-06-04T15:17:20;100348.00;;;24.83;33.96
44825;BME280;30542;47.928;2.138;2023-06-04T15:22:20;100354.41;;;24.87;33.97
44825;BME280;30542;47.928;2.138;2023-06-04T15:27:20;100345.75;;;24.90;34.29
44825;BME280;30542;47.928;2.138;2023-06-04T15:32:21;100343.25;;;24.93;34.24
44825;BME280;30542;47.928;2.138;2023-06-04T15:37:21;100343.47;;;24.97;34.32
44825;BME280;30542;47.928;2.138;2023-06-04T15:42:22;100348.97;;;25.05;33.63
44825;BME280;30542;47.928;2.138;2023-06-04T15:47:22;100332.72;;;25.11;33.70
44825;BME280;30542;47.928;2.138;2023-06-04T15:52:22;100331.84;;;25.15;33.91
44825;BME280;30542;47.928;2.138;2023-06-04T15:57:23;100326.66;;;25.19;34.13
44825;BME280;30542;47.928;2.138;2023-06-04T16:02:23;100317.16;;;25.21;34.27
44825;BME280;30542;47.928;2.138;2023-06-04T16:07:23;100334.25;;;25.31;34.36
44825;BME280;30542;47.928;2.138;2023-06-04T16:12:23;100325.34;;;25.44;34.36
44825;BME280;30542;47.928;2.138;2023-06-04T16:17:24;100328.63;;;25.54;34.26
44825;BME280;30542;47.928;2.138;2023-06-04T16:22:24;100330.53;;;25.68;34.40
44825;BME280;30542;47.928;2.138;2023-06-04T16:27:25;100330.03;;;25.66;34.42
44825;BME280;30542;47.928;2.138;2023-06-04T16:32:25;100324.63;;;25.66;34.02
44825;BME280;30542;47.928;2.138;2023-06-04T16:37:25;100314.84;;;25.70;33.77
44825;BME280;30542;47.928;2.138;2023-06-04T16:42:26;100327.72;;;25.73;33.38
44825;BME280;30542;47.928;2.138;2023-06-04T16:47:26;100311.72;;;25.76;33.33
44825;BME280;30542;47.928;2.138;2023-06-04T16:52:27;100323.75;;;25.84;33.23
44825;BME280;30542;47.928;2.138;2023-06-04T16:57:27;100313.56;;;25.81;33.04
44825;BME280;30542;47.928;2.138;2023-06-04T17:02:28;100319.53;;;25.78;32.96
44825;BME280;30542;47.928;2.138;2023-06-04T17:07:28;100316.94;;;25.73;32.75
44825;BME280;30542;47.928;2.138;2023-06-04T17:12:29;100314.56;;;25.71;32.41
44825;BME280;30542;47.928;2.138;2023-06-04T17:17:29;100326.13;;;25.72;32.26
44825;BME280;30542;47.928;2.138;2023-06-04T17:22:29;100329.13;;;25.70;32.42
44825;BME280;30542;47.928;2.138;2023-06-04T17:27:30;100327.53;;;25.69;32.11
44825;BME280;30542;47.928;2.138;2023-06-04T17:32:30;100328.13;;;25.66;31.81
44825;BME280;30542;47.928;2.138;2023-06-04T17:37:31;100330.53;;;25.68;32.32
44825;BME280;30542;47.928;2.138;2023-06-04T17:42:33;100329.75;;;25.67;32.17
44825;BME280;30542;47.928;2.138;2023-06-04T17:47:33;100339.22;;;25.65;31.98
44825;BME280;30542;47.928;2.138;2023-06-04T17:52:35;100340.34;;;25.64;32.00
44825;BME280;30542;47.928;2.138;2023-06-04T17:57:35;100344.09;;;25.63;31.86
44825;BME280;30542;47.928;2.138;2023-06-04T18:02:36;100344.63;;;25.65;31.89
44825;BME280;30542;47.928;2.138;2023-06-04T18:07:36;100350.81;;;25.65;32.19
44825;BME280;30542;47.928;2.138;2023-06-04T18:12:37;100352.13;;;25.68;32.24
44825;BME280;30542;47.928;2.138;2023-06-04T18:17:37;100361.00;;;25.68;32.64
44825;BME280;30542;47.928;2.138;2023-06-04T18:22:38;100360.69;;;25.70;32.42
44825;BME280;30542;47.928;2.138;2023-06-04T18:27:38;100370.09;;;25.72;32.37
44825;BME280;30542;47.928;2.138;2023-06-04T18:32:39;100370.38;;;25.71;32.37
44825;BME280;30542;47.928;2.138;2023-06-04T18:37:41;100380.09;;;25.72;32.60
44825;BME280;30542;47.928;2.138;2023-06-04T18:42:45;100372.28;;;25.70;32.76
44825;BME280;30542;47.928;2.138;2023-06-04T18:47:46;100379.88;;;25.68;32.90
44825;BME280;30542;47.928;2.138;2023-06-04T18:52:48;100385.56;;;25.67;33.12
44825;BME280;30542;47.928;2.138;2023-06-04T18:57:48;100377.31;;;25.63;33.37
44825;BME280;30542;47.928;2.138;2023-06-04T19:02:48;100391.88;;;25.62;33.52
44825;BME280;30542;47.928;2.138;2023-06-04T19:07:49;100384.88;;;25.61;33.63
44825;BME280;30542;47.928;2.138;2023-06-04T19:12:51;100396.19;;;25.63;33.72
44825;BME280;30542;47.928;2.138;2023-06-04T19:17:52;100403.44;;;25.63;33.90
44825;BME280;30542;47.928;2.138;2023-06-04T19:22:52;100399.69;;;25.64;33.95
44825;BME280;30542;47.928;2.138;2023-06-04T19:27:52;100410.47;;;25.64;34.13
44825;BME280;30542;47.928;2.138;2023-06-04T19:32:54;100413.97;;;25.64;34.36
44825;BME280;30542;47.928;2.138;2023-06-04T19:37:54;100420.47;;;25.63;34.59
44825;BME280;30542;47.928;2.138;2023-06-04T19:42:54;100420.47;;;25.63;34.50
44825;BME280;30542;47.928;2.138;2023-06-04T19:47:55;100429.34;;;25.64;34.65
44825;BME280;30542;47.928;2.138;2023-06-04T19:52:57;100431.03;;;25.60;34.54
44825;BME280;30542;47.928;2.138;2023-06-04T19:57:57;100441.41;;;25.66;35.13
44825;BME280;30542;47.928;2.138;2023-06-04T20:03:00;100451.94;;;25.68;35.09
44825;BME280;30542;47.928;2.138;2023-06-04T20:08:01;100460.50;;;25.70;35.18
44825;BME280;30542;47.928;2.138;2023-06-04T20:13:01;100461.63;;;25.69;35.27
44825;BME280;30542;47.928;2.138;2023-06-04T20:18:01;100459.22;;;25.67;35.48
44825;BME280;30542;47.928;2.138;2023-06-04T20:23:02;100460.31;;;25.66;35.42
44825;BME280;30542;47.928;2.138;2023-06-04T20:28:02;100469.50;;;25.65;35.55
44825;BME280;30542;47.928;2.138;2023-06-04T20:33:02;100474.41;;;25.63;35.84
44825;BME280;30542;47.928;2.138;2023-06-04T20:38:03;100472.00;;;25.62;35.79
44825;BME280;30542;47.928;2.138;2023-06-04T20:43:03;100475.00;;;25.60;35.80
44825;BME280;30542;47.928;2.138;2023-06-04T20:48:04;100480.66;;;25.59;36.07
44825;BME280;30542;47.928;2.138;2023-06-04T20:53:04;100476.16;;;25.54;36.02
44825;BME280;30542;47.928;2.138;2023-06-04T20:58:05;100485.00;;;25.60;36.15
44825;BME280;30542;47.928;2.138;2023-06-04T21:03:05;100496.84;;;25.59;36.46
44825;BME280;30542;47.928;2.138;2023-06-04T21:08:05;100500.38;;;25.59;36.33
44825;BME280;30542;47.928;2.138;2023-06-04T21:13:05;100498.75;;;25.58;36.34
44825;BME280;30542;47.928;2.138;2023-06-04T21:18:06;100497.16;;;25.57;36.50
44825;BME280;30542;47.928;2.138;2023-06-04T21:23:06;100500.66;;;25.58;36.20
44825;BME280;30542;47.928;2.138;2023-06-04T21:28:07;100493.00;;;25.65;36.22
44825;BME280;30542;47.928;2.138;2023-06-04T21:33:07;100499.19;;;25.65;36.11
44825;BME280;30542;47.928;2.138;2023-06-04T21:38:07;100496.00;;;25.63;36.30
44825;BME280;30542;47.928;2.138;2023-06-04T21:43:08;100499.28;;;25.60;36.24
44825;BME280;30542;47.928;2.138;2023-06-04T21:48:08;100503.88;;;25.60;36.29
44825;BME280;30542;47.928;2.138;2023-06-04T21:53:08;100503.34;;;25.58;36.64
44825;BME280;30542;47.928;2.138;2023-06-04T21:58:09;100496.06;;;25.58;36.68
44825;BME280;30542;47.928;2.138;2023-06-04T22:03:09;100500.66;;;25.58;36.65
44825;BME280;30542;47.928;2.138;2023-06-04T22:08:10;100490.97;;;25.57;36.64
44825;BME280;30542;47.928;2.138;2023-06-04T22:13:12;100495.84;;;25.54;36.59
44825;BME280;30542;47.928;2.138;2023-06-04T22:18:12;100497.75;;;25.54;36.80
44825;BME280;30542;47.928;2.138;2023-06-04T22:23:13;100503.16;;;25.54;36.64
44825;BME280;30542;47.928;2.138;2023-06-04T22:28:13;100496.16;;;25.53;36.60
44825;BME280;30542;47.928;2.138;2023-06-04T22:33:14;100494.56;;;25.52;36.68
44825;BME280;30542;47.928;2.138;2023-06-04T22:38:14;100492.16;;;25.50;36.69
44825;BME280;30542;47.928;2.138;2023-06-04T22:43:15;100491.16;;;25.46;36.48
44825;BME280;30542;47.928;2.138;2023-06-04T22:48:15;100496.47;;;25.51;36.58
44825;BME280;30542;47.928;2.138;2023-06-04T22:53:16;100499.16;;;25.51;36.59
44825;BME280;30542;47.928;2.138;2023-06-04T22:58:17;100489.16;;;25.52;36.69
44825;BME280;30542;47.928;2.138;2023-06-04T23:03:18;100492.97;;;25.51;36.63
44825;BME280;30542;47.928;2.138;2023-06-04T23:08:19;100490.28;;;25.51;36.47
44825;BME280;30542;47.928;2.138;2023-06-04T23:13:19;100485.69;;;25.51;36.56
44825;BME280;30542;47.928;2.138;2023-06-04T23:18:20;100487.56;;;25.51;36.63
44825;BME280;30542;47.928;2.138;2023-06-04T23:23:20;100491.34;;;25.50;36.99
44825;BME280;30542;47.928;2.138;2023-06-04T23:28:20;100479.75;;;25.49;36.70
44825;BME280;30542;47.928;2.138;2023-06-04T23:33:21;100484.38;;;25.49;36.64
44825;BME280;30542;47.928;2.138;2023-06-04T23:38:21;100480.06;;;25.48;36.94
44825;BME280;30542;47.928;2.138;2023-06-04T23:43:21;100478.16;;;25.48;36.69
44825;BME280;30542;47.928;2.138;2023-06-04T23:48:22;100473.88;;;25.47;36.71
44825;BME280;30542;47.928;2.138;2023-06-04T23:53:22;100475.78;;;25.47;36.73
44825;BME280;30542;47.928;2.138;2023-06-04T23:58:22;100486.25;;;25.48;36.57
